This is the latest recevied weather packets stored in our database for station/object K1BWE-1. If no packets are shown the sender has not sent any weather packets the latest 1 day(s).
| Time | Temp. | Humidity | Pressure | Rain* | Wind** | Luminosity | Snow |
|---|---|---|---|---|---|---|---|
| 1778022327 | 22.78° C | 31% | 1011.4 hPa | 0 mm | 3.13 m/s, 249° | 552 W/m² | - |
| 1778022023 | 22.78° C | 32% | 1011.4 hPa | 0 mm | 1.34 m/s, 266° | 547 W/m² | - |
| 1778021720 | 22.78° C | 32% | 1011.7 hPa | 0 mm | 2.68 m/s, 256° | 532 W/m² | - |
| 1778021416 | 22.78° C | 33% | 1011.6 hPa | 0 mm | 1.34 m/s, 229° | 542 W/m² | - |
| 1778021114 | 22.78° C | 33% | 1011.7 hPa | 0 mm | 1.34 m/s, 269° | 570 W/m² | - |
| 1778020811 | 22.22° C | 33% | 1011.6 hPa | 0 mm | 3.58 m/s, 258° | 589 W/m² | - |
| 1778020508 | 21.67° C | 34% | 1011.6 hPa | 0 mm | 2.68 m/s, 257° | 651 W/m² | - |
| 1778020216 | 21.67° C | 34% | 1011.8 hPa | 0 mm | 2.68 m/s, 263° | 642 W/m² | - |
| 1778019900 | 21.67° C | 35% | 1011.8 hPa | 0 mm | 2.68 m/s, 160° | 441 W/m² | - |
| 1778019596 | 22.78° C | 35% | 1011.9 hPa | 0 mm | 1.34 m/s, 260° | 564 W/m² | - |
| 1778019293 | 21.67° C | 36% | 1011.8 hPa | 0 mm | 0.89 m/s, 263° | 694 W/m² | - |
| 1778018990 | 22.22° C | 34% | 1011.8 hPa | 0 mm | 2.68 m/s, 252° | 199 W/m² | - |
| 1778018687 | 21.11° C | 37% | 1012 hPa | 0 mm | 1.34 m/s, 195° | 291 W/m² | - |
| 1778018385 | 22.78° C | 36% | 1012 hPa | 0 mm | 2.24 m/s, 287° | 666 W/m² | - |
| 1778018083 | 23.33° C | 35% | 1012.4 hPa | 0 mm | 1.79 m/s, 259° | 661 W/m² | - |
| 1778017780 | 22.78° C | 35% | 1012.1 hPa | 0 mm | 2.68 m/s, 284° | 622 W/m² | - |
| 1778017478 | 22.22° C | 37% | 1012.2 hPa | 0 mm | 1.34 m/s, 244° | 746 W/m² | - |
| 1778017175 | 22.78° C | 36% | 1012.7 hPa | 0 mm | 3.13 m/s, 279° | 751 W/m² | - |
| 1778016873 | 21.67° C | 39% | 1012.2 hPa | 0 mm | 1.79 m/s, 201° | 742 W/m² | - |
| 1778016569 | 21.67° C | 41% | 1012.2 hPa | 0 mm | 2.68 m/s, 322° | 815 W/m² | - |
| 1778016266 | 21.11° C | 44% | 1012.4 hPa | 0 mm | 2.24 m/s, 278° | 332 W/m² | - |
| 1778015962 | 20.56° C | 45% | 1012.1 hPa | 0 mm | 1.79 m/s, 314° | 759 W/m² | - |
| 1778015660 | 21.11° C | 45% | 1012.8 hPa | 0 mm | 2.68 m/s, 257° | 357 W/m² | - |
| 1778015356 | 21.11° C | 46% | 1012.5 hPa | 0 mm | 1.79 m/s, 309° | 811 W/m² | - |
| 1778015054 | 20° C | 49% | 1012.7 hPa | 0 mm | 1.34 m/s, 278° | 150 W/m² | - |
* Rain latest hour (hover to see other rain measurements)
** Current wind speed in m/s (hover to see current wind gust speed)